EBUB weather

ULB heliport
Brussels, Brussels-Capital Region, Belgium

Public forecast

Using degrees Celsius for public forecast. Weather courtesy of forecast.io.

Closest aviation weather report (METAR) to ULB heliport

Closest report is Brussels Airport, 10.0 nm (18.5 km) ENE. Retrieved 2020/02/27 07:20 UTC (24 minutes ago):

EBBR 270720Z 17010KT 9999 FEW010 BKN030 03/01 Q1000 BECMG 5000 BKN010

Closest aviation forecast (TAF) to ULB heliport

Closest forecast is Brussels Airport, 10.0 nm (18.5 km) ENE. Retrieved 2020/02/27 06:27 UTC (1 hour ago):

TAF TAF EBBR 270510Z 2706/2812 18008KT 8000 -RA SCT008 BKN012 BECMG 2706/2709 4000 -RASN BKN008 TEMPO 2708/2717 2000 SNRA BKN003 PROB40 TEMPO 2709/2716 0500 SN VV001 BECMG 2716/2719 30015G25KT 9999 NSW FEW012 SCT030 PROB30 TEMPO 2719/2722 4000 SHRAGS BECMG 2721/2723 26008KT BECMG 2810/2812 18012G22KT